Time;durP1;ratioP1;P1;durP2;ratioP2;P2;SDS_P1;SDS_P2;PMS_P1;PMS_P2;Temp;Humidity;BMP_temperature;BMP_pressure;BME280_temperature;BME280_humidity;BME280_pressure;Samples;Min_cycle;Max_cycle;Signal;HPM_P1;HPM_P2
2021/12/14 00:00:44;;;;;;;26.58;12.65;;;;;;;;;;5019251;28;20064;-63
2021/12/14 00:03:11;;;;;;;;;;;;;;;;;;5019099;28;20037;-66
2021/12/14 00:05:41;;;;;;;27.83;10.43;;;;;;;;;;5020476;28;19931;-64
2021/12/14 00:08:12;;;;;;;28.02;11.18;;;;;;;;;;5021166;28;20159;-66
2021/12/14 00:10:58;;;;;;;28.65;12.20;;;;;;;;;;5019915;28;20053;-65
2021/12/14 00:13:42;;;;;;;29.10;12.25;;;;;;;;;;5020997;28;20449;-67
2021/12/14 00:16:10;;;;;;;30.15;13.18;;;;;;;;;;5019218;28;20059;-65
2021/12/14 00:18:38;;;;;;;28.70;12.95;;;;;;;;;;5020773;28;20048;-65
2021/12/14 00:21:09;;;;;;;29.90;12.10;;;;;;;;;;5020676;28;20056;-64
2021/12/14 00:26:23;;;;;;;25.40;11.40;;;;;;;;;;5020077;28;20056;-65
2021/12/14 00:28:52;;;;;;;28.27;12.45;;;;;;;;;;5019768;28;20049;-65
2021/12/14 00:31:21;;;;;;;29.45;13.27;;;;;;;;;;5019351;28;20056;-64
2021/12/14 00:33:52;;;;;;;27.60;11.98;;;;;;;;;;5019403;28;20054;-65
2021/12/14 00:36:21;;;;;;;27.80;12.13;;;;;;;;;;5019055;28;20057;-65
2021/12/14 00:38:56;;;;;;;28.90;11.55;;;;;;;;;;5019822;28;20056;-66
2021/12/14 00:41:26;;;;;;;30.60;12.18;;;;;;;;;;5019024;28;20061;-65
2021/12/14 00:43:55;;;;;;;27.55;12.32;;;;;;;;;;5018499;28;20045;-65
2021/12/14 00:46:23;;;;;;;27.38;11.90;;;;;;;;;;5020260;28;20071;-66
2021/12/14 00:48:51;;;;;;;28.63;11.45;;;;;;;;;;5018528;28;20046;-63
2021/12/14 00:51:21;;;;;;;25.35;10.75;;;;;;;;;;5021452;28;20056;-63
2021/12/14 00:53:49;;;;;;;26.35;11.18;;;;;;;;;;5019251;28;20156;-65
2021/12/14 00:56:16;;;;;;;27.10;11.23;;;;;;;;;;5017956;28;20049;-65
2021/12/14 00:58:44;;;;;;;27.58;10.98;;;;;;;;;;5019605;28;20057;-64
2021/12/14 01:01:17;;;;;;;26.63;11.10;;;;;;;;;;5018647;28;20078;-65
2021/12/14 01:03:47;;;;;;;29.35;11.85;;;;;;;;;;5017885;28;20049;-64
2021/12/14 01:06:17;;;;;;;29.30;11.80;;;;;;;;;;5018377;28;20049;-64
2021/12/14 01:08:46;;;;;;;28.30;12.13;;;;;;;;;;5019275;28;20052;-65
2021/12/14 01:11:19;;;;;;;29.58;12.95;;;;;;;;;;5018592;28;20048;-67
2021/12/14 01:13:58;;;;;;;26.98;10.38;;;;;;;;;;5019182;28;20068;-65
2021/12/14 01:16:34;;;;;;;29.65;12.38;;;;;;;;;;5016669;28;20058;-65
2021/12/14 01:19:13;;;;;;;27.90;10.30;;;;;;;;;;5018083;28;20148;-64
2021/12/14 01:21:59;;;;;;;28.35;11.05;;;;;;;;;;5021338;28;20053;-66
2021/12/14 01:24:59;;;;;;;25.33;9.32;;;;;;;;;;5019351;28;20419;-67
2021/12/14 01:27:26;;;;;;;24.90;10.38;;;;;;;;;;5018940;28;20046;-64
2021/12/14 01:29:55;;;;;;;24.85;9.45;;;;;;;;;;5019802;28;20049;-65
2021/12/14 01:32:28;;;;;;;25.23;10.23;;;;;;;;;;5019481;28;20140;-64
2021/12/14 01:34:55;;;;;;;22.33;9.27;;;;;;;;;;5017678;28;20062;-65
2021/12/14 01:37:27;;;;;;;20.63;9.23;;;;;;;;;;5017926;28;20042;-66
2021/12/14 01:40:05;;;;;;;19.45;8.25;;;;;;;;;;5019812;28;20046;-66
2021/12/14 01:42:40;;;;;;;17.13;7.88;;;;;;;;;;5018342;28;20048;-65
2021/12/14 01:45:11;;;;;;;18.25;7.90;;;;;;;;;;5019414;28;20474;-65
2021/12/14 01:47:43;;;;;;;18.23;7.32;;;;;;;;;;5016964;28;20050;-66
2021/12/14 01:50:14;;;;;;;19.15;8.32;;;;;;;;;;5017898;28;20050;-66
2021/12/14 01:52:41;;;;;;;20.10;8.48;;;;;;;;;;5019167;28;20049;-64
2021/12/14 01:55:12;;;;;;;18.00;8.55;;;;;;;;;;5020142;28;20050;-66
2021/12/14 01:57:40;;;;;;;19.08;7.78;;;;;;;;;;5019275;28;20053;-65
2021/12/14 02:00:11;;;;;;;17.52;7.70;;;;;;;;;;5019798;28;20046;-66
2021/12/14 02:02:42;;;;;;;17.92;8.50;;;;;;;;;;5017736;28;20045;-66
2021/12/14 02:05:18;;;;;;;21.80;8.80;;;;;;;;;;5018256;28;20107;-65
2021/12/14 02:07:46;;;;;;;17.10;7.88;;;;;;;;;;5017577;28;20081;-66
2021/12/14 02:10:21;;;;;;;14.18;6.38;;;;;;;;;;5017092;28;20137;-66
2021/12/14 02:12:48;;;;;;;13.90;6.25;;;;;;;;;;5017668;28;20046;-65
2021/12/14 02:15:20;;;;;;;18.65;7.38;;;;;;;;;;5018294;28;20125;-67
2021/12/14 02:17:50;;;;;;;15.48;7.47;;;;;;;;;;5016820;28;20045;-65
2021/12/14 02:20:22;;;;;;;17.45;7.55;;;;;;;;;;5018055;28;20057;-68
2021/12/14 02:22:51;;;;;;;14.98;6.32;;;;;;;;;;5017829;23;20045;-61
2021/12/14 02:25:19;;;;;;;17.95;7.20;;;;;;;;;;4999422;28;20050;-61
2021/12/14 02:27:51;;;;;;;15.77;7.22;;;;;;;;;;4998687;28;20054;-61
2021/12/14 02:30:21;;;;;;;16.85;7.30;;;;;;;;;;4998347;28;20514;-61
2021/12/14 02:32:48;;;;;;;;;;;;;;;;;;4998582;28;20422;-60
2021/12/14 02:35:20;;;;;;;14.00;5.95;;;;;;;;;;4997270;28;19925;-61
2021/12/14 02:37:52;;;;;;;10.68;5.13;;;;;;;;;;4999085;28;20055;-61
2021/12/14 02:40:31;;;;;;;10.45;4.93;;;;;;;;;;4998472;28;20058;-61
2021/12/14 02:43:01;;;;;;;11.38;5.07;;;;;;;;;;4996564;28;20050;-61
2021/12/14 02:45:29;;;;;;;10.80;5.10;;;;;;;;;;4999123;28;20570;-61
2021/12/14 02:47:56;;;;;;;12.52;5.05;;;;;;;;;;4998235;28;20288;-61
2021/12/14 02:50:25;;;;;;;9.85;5.00;;;;;;;;;;5000135;28;20043;-61
2021/12/14 02:52:54;;;;;;;10.98;4.78;;;;;;;;;;4998331;28;20133;-61
2021/12/14 02:55:23;;;;;;;11.57;5.47;;;;;;;;;;4998727;28;20069;-61
2021/12/14 02:57:54;;;;;;;12.52;5.53;;;;;;;;;;4996372;28;20056;-60
2021/12/14 03:00:24;;;;;;;8.95;4.40;;;;;;;;;;4999205;28;20060;-61
2021/12/14 03:02:51;;;;;;;8.98;3.92;;;;;;;;;;4998863;28;20129;-62
2021/12/14 03:05:22;;;;;;;9.63;3.83;;;;;;;;;;4997715;28;20053;-60
2021/12/14 03:07:52;;;;;;;8.50;4.15;;;;;;;;;;4996843;28;20057;-61
2021/12/14 03:10:35;;;;;;;10.45;4.38;;;;;;;;;;4998992;28;20046;-61
2021/12/14 03:13:05;;;;;;;11.55;4.40;;;;;;;;;;4997021;28;20054;-62
2021/12/14 03:15:35;;;;;;;10.00;4.10;;;;;;;;;;4999639;28;20483;-62
2021/12/14 03:18:07;;;;;;;9.77;4.40;;;;;;;;;;4998549;28;20039;-62
2021/12/14 03:20:37;;;;;;;10.40;3.90;;;;;;;;;;4998445;28;20275;-61
2021/12/14 03:23:06;;;;;;;7.55;3.45;;;;;;;;;;4998989;28;20050;-61
2021/12/14 03:25:38;;;;;;;8.55;4.25;;;;;;;;;;4997307;28;20045;-60
2021/12/14 03:28:06;;;;;;;6.88;3.00;;;;;;;;;;4993535;28;20054;-62
2021/12/14 03:30:37;;;;;;;7.75;3.35;;;;;;;;;;5004477;28;20049;-61
2021/12/14 03:33:08;;;;;;;10.45;4.15;;;;;;;;;;5002105;28;20045;-62
2021/12/14 03:35:36;;;;;;;;;;;;;;;;;;5001418;28;20392;-61
2021/12/14 03:38:08;;;;;;;8.65;4.15;;;;;;;;;;5001086;28;19922;-61
2021/12/14 03:40:37;;;;;;;9.60;3.72;;;;;;;;;;5000700;28;20064;-62
2021/12/14 03:43:04;;;;;;;9.88;3.58;;;;;;;;;;5002213;28;20849;-61
2021/12/14 03:45:31;;;;;;;8.55;3.40;;;;;;;;;;5001067;28;20905;-61
2021/12/14 03:48:01;;;;;;;7.18;3.53;;;;;;;;;;5000722;28;20042;-62
2021/12/14 03:50:35;;;;;;;7.85;3.42;;;;;;;;;;5001640;28;20124;-61
2021/12/14 03:53:02;;;;;;;8.00;3.33;;;;;;;;;;5001794;28;20227;-61
2021/12/14 03:55:33;;;;;;;8.23;3.17;;;;;;;;;;5000259;28;20055;-61
2021/12/14 03:58:02;;;;;;;8.18;3.28;;;;;;;;;;5001358;28;20045;-61
2021/12/14 04:00:33;;;;;;;8.30;3.10;;;;;;;;;;5000415;28;20157;-58
2021/12/14 04:03:05;;;;;;;11.27;3.72;;;;;;;;;;5000533;28;20089;-61
2021/12/14 04:05:33;;;;;;;9.25;3.47;;;;;;;;;;4999844;28;20062;-62
2021/12/14 04:08:00;;;;;;;10.43;3.78;;;;;;;;;;5000276;28;20053;-60
2021/12/14 04:10:32;;;;;;;9.02;3.55;;;;;;;;;;5001601;28;20410;-61
2021/12/14 04:13:01;;;;;;;8.60;3.22;;;;;;;;;;4999873;28;20057;-62
2021/12/14 04:15:28;;;;;;;5.90;3.17;;;;;;;;;;5001556;28;20074;-61
2021/12/14 04:17:57;;;;;;;6.07;3.35;;;;;;;;;;4999571;28;20054;-61
2021/12/14 04:20:28;;;;;;;9.80;3.55;;;;;;;;;;5002071;28;20423;-61
2021/12/14 04:22:56;;;;;;;8.52;3.25;;;;;;;;;;4999882;28;20050;-61
2021/12/14 04:25:27;;;;;;;8.30;3.72;;;;;;;;;;5000453;28;20049;-62
2021/12/14 04:27:54;;;;;;;9.13;3.45;;;;;;;;;;4999856;28;20072;-61
2021/12/14 04:30:25;;;;;;;13.25;4.03;;;;;;;;;;4999443;28;20451;-61
2021/12/14 04:32:57;;;;;;;11.10;4.28;;;;;;;;;;4999867;28;20061;-62
2021/12/14 04:35:25;;;;;;;10.77;4.22;;;;;;;;;;5001046;28;20063;-62
2021/12/14 04:37:55;;;;;;;11.30;4.18;;;;;;;;;;5000398;28;20081;-60
2021/12/14 04:40:36;;;;;;;;;;;;;;;;;;4999377;28;20042;-60
2021/12/14 04:54:09;;;;;;;12.55;4.57;;;;;;;;;;5001094;28;20084;-61
2021/12/14 04:56:38;;;;;;;11.40;4.43;;;;;;;;;;4998955;28;20423;-61
2021/12/14 04:59:09;;;;;;;13.35;5.65;;;;;;;;;;5001709;28;20498;-61
2021/12/14 05:01:41;;;;;;;14.85;5.30;;;;;;;;;;5001182;28;20050;-61
2021/12/14 05:04:11;;;;;;;13.95;4.65;;;;;;;;;;4999075;28;20419;-60
2021/12/14 05:06:52;;;;;;;14.60;5.28;;;;;;;;;;4999713;28;20046;-60
2021/12/14 05:09:22;;;;;;;14.05;5.20;;;;;;;;;;4998493;28;20076;-61
2021/12/14 05:11:51;;;;;;;18.80;5.90;;;;;;;;;;5000389;28;20041;-61
2021/12/14 05:14:19;;;;;;;13.80;5.18;;;;;;;;;;4999063;28;20058;-61
2021/12/14 05:16:47;;;;;;;12.77;5.05;;;;;;;;;;5000157;28;20060;-60
2021/12/14 05:19:14;;;;;;;13.18;5.45;;;;;;;;;;4998430;28;20045;-59
2021/12/14 05:21:45;;;;;;;11.55;4.43;;;;;;;;;;4998376;28;20060;-60
2021/12/14 05:24:15;;;;;;;10.00;4.35;;;;;;;;;;4999130;28;20507;-60
2021/12/14 05:26:43;;;;;;;11.60;4.25;;;;;;;;;;4999578;28;20057;-61
2021/12/14 05:29:12;;;;;;;12.40;4.07;;;;;;;;;;4999740;28;20415;-61
2021/12/14 05:31:45;;;;;;;14.27;5.20;;;;;;;;;;5001553;28;20058;-61
2021/12/14 05:34:14;;;;;;;11.05;4.05;;;;;;;;;;4999480;28;20054;-60
2021/12/14 05:36:42;;;;;;;10.23;4.28;;;;;;;;;;4996501;28;20064;-61
2021/12/14 05:39:28;;;;;;;13.68;4.70;;;;;;;;;;4998282;28;20052;-60
2021/12/14 05:44:45;;;;;;;10.23;4.72;;;;;;;;;;5000254;28;20128;-61
2021/12/14 05:47:17;;;;;;;14.18;5.72;;;;;;;;;;5000621;28;20046;-61
2021/12/14 05:49:48;;;;;;;14.38;4.82;;;;;;;;;;4999897;28;20941;-62
2021/12/14 05:52:19;;;;;;;12.82;5.05;;;;;;;;;;4998012;28;20045;-61
2021/12/14 05:54:47;;;;;;;26.35;6.47;;;;;;;;;;5000206;28;20047;-62
2021/12/14 05:57:17;;;;;;;13.27;5.43;;;;;;;;;;4999709;28;20089;-61
2021/12/14 05:59:44;;;;;;;17.13;6.55;;;;;;;;;;4999200;28;20052;-62
2021/12/14 06:02:12;;;;;;;15.90;5.93;;;;;;;;;;4997901;28;20121;-61
2021/12/14 06:04:41;;;;;;;11.95;5.35;;;;;;;;;;4997516;28;20054;-60
2021/12/14 06:07:10;;;;;;;12.15;5.60;;;;;;;;;;4997881;28;20053;-60
2021/12/14 06:09:39;;;;;;;11.23;5.00;;;;;;;;;;4999076;28;20087;-61
2021/12/14 06:12:11;;;;;;;11.20;5.07;;;;;;;;;;4998866;28;20821;-61
2021/12/14 06:14:43;;;;;;;12.40;5.70;;;;;;;;;;4999931;28;20054;-61
2021/12/14 06:17:11;;;;;;;11.98;5.22;;;;;;;;;;4998695;28;20057;-62
2021/12/14 06:19:40;;;;;;;9.10;4.93;;;;;;;;;;4997657;28;20055;-61
2021/12/14 06:22:11;;;;;;;12.05;5.32;;;;;;;;;;4999607;28;20127;-61
2021/12/14 06:24:40;;;;;;;12.80;5.05;;;;;;;;;;4997810;28;20042;-61
2021/12/14 06:27:11;;;;;;;14.32;5.60;;;;;;;;;;4998195;28;20054;-61
2021/12/14 06:29:41;;;;;;;13.75;5.63;;;;;;;;;;4998699;28;20050;-61
2021/12/14 06:32:11;;;;;;;11.90;5.60;;;;;;;;;;4998263;28;20065;-61
2021/12/14 06:34:42;;;;;;;13.07;4.53;;;;;;;;;;4997307;28;20049;-61
2021/12/14 06:37:54;;;;;;;12.15;5.50;;;;;;;;;;4998448;28;20050;-62
2021/12/14 06:40:26;;;;;;;12.95;5.05;;;;;;;;;;4998242;28;20124;-60
2021/12/14 06:42:55;;;;;;;13.95;5.07;;;;;;;;;;5000027;28;20538;-61
2021/12/14 06:45:26;;;;;;;13.38;5.97;;;;;;;;;;4998100;28;20042;-61
2021/12/14 06:47:57;;;;;;;12.90;6.07;;;;;;;;;;4997631;28;20057;-61
2021/12/14 06:50:30;;;;;;;13.45;4.47;;;;;;;;;;4998357;28;20050;-60
2021/12/14 06:53:01;;;;;;;10.93;4.30;;;;;;;;;;4998590;28;20058;-62
2021/12/14 06:55:28;;;;;;;;;;;;;;;;;;4998667;28;20069;-61
2021/12/14 06:58:07;;;;;;;8.63;3.60;;;;;;;;;;4998831;28;20399;-61
2021/12/14 07:00:35;;;;;;;8.25;4.80;;;;;;;;;;4998021;28;20062;-62
2021/12/14 07:03:02;;;;;;;10.88;4.18;;;;;;;;;;4998827;28;20046;-62
2021/12/14 07:05:31;;;;;;;9.48;3.78;;;;;;;;;;5000152;28;20052;-62
2021/12/14 07:08:01;;;;;;;10.57;4.32;;;;;;;;;;5001600;28;20052;-61
2021/12/14 07:10:35;;;;;;;9.00;3.65;;;;;;;;;;5001961;28;20054;-60
2021/12/14 07:13:10;;;;;;;9.57;4.13;;;;;;;;;;5003111;28;20506;-62
2021/12/14 07:15:37;;;;;;;7.72;3.83;;;;;;;;;;5001164;28;20058;-61
2021/12/14 07:18:06;;;;;;;9.05;4.15;;;;;;;;;;5001958;28;20057;-61
2021/12/14 07:20:37;;;;;;;7.55;3.65;;;;;;;;;;5001677;28;20057;-62
2021/12/14 07:23:18;;;;;;;7.93;3.47;;;;;;;;;;5001776;28;21355;-61
2021/12/14 07:25:52;;;;;;;8.07;3.65;;;;;;;;;;5001874;28;20057;-61
2021/12/14 07:28:19;;;;;;;7.35;3.50;;;;;;;;;;5001810;28;20054;-62
2021/12/14 07:30:49;;;;;;;8.88;3.80;;;;;;;;;;5001526;28;20704;-60
2021/12/14 07:33:17;;;;;;;9.50;3.75;;;;;;;;;;5000766;28;20042;-60
2021/12/14 07:35:51;;;;;;;9.35;3.83;;;;;;;;;;5000685;28;20073;-60
2021/12/14 07:38:44;;;;;;;7.47;3.72;;;;;;;;;;5001304;28;20050;-60
2021/12/14 07:41:21;;;;;;;9.27;3.88;;;;;;;;;;5002467;28;20145;-61
2021/12/14 07:43:53;;;;;;;7.40;3.50;;;;;;;;;;5000081;28;20064;-60
2021/12/14 07:46:25;;;;;;;6.20;2.80;;;;;;;;;;5000727;28;20038;-59
2021/12/14 07:48:55;;;;;;;8.27;3.53;;;;;;;;;;5000580;28;20042;-62
2021/12/14 07:51:24;;;;;;;9.73;3.38;;;;;;;;;;5001226;28;20050;-61
2021/12/14 07:53:55;;;;;;;7.65;3.65;;;;;;;;;;5002788;28;20050;-60
2021/12/14 07:56:28;;;;;;;7.93;3.10;;;;;;;;;;5001664;28;20050;-60
2021/12/14 07:58:57;;;;;;;8.23;3.90;;;;;;;;;;5000559;28;20046;-60
2021/12/14 08:01:25;;;;;;;10.85;3.72;;;;;;;;;;5000959;28;20133;-60
2021/12/14 08:04:05;;;;;;;8.70;3.97;;;;;;;;;;5000467;28;20046;-59
2021/12/14 08:06:49;;;;;;;7.05;3.80;;;;;;;;;;5006717;28;20084;-61
2021/12/14 08:09:33;;;;;;;9.43;4.00;;;;;;;;;;4998730;28;20050;-60
2021/12/14 08:12:01;;;;;;;6.72;3.50;;;;;;;;;;4998927;28;20046;-60
2021/12/14 08:14:30;;;;;;;7.88;4.10;;;;;;;;;;5000714;28;20058;-60
2021/12/14 08:17:00;;;;;;;8.57;4.00;;;;;;;;;;4997643;28;20054;-60
2021/12/14 08:19:33;;;;;;;9.20;4.30;;;;;;;;;;4999388;28;20519;-59
2021/12/14 08:22:04;;;;;;;8.20;3.85;;;;;;;;;;4997058;28;20373;-60
2021/12/14 08:24:32;;;;;;;10.82;4.57;;;;;;;;;;4999480;28;20046;-61
2021/12/14 08:27:02;;;;;;;6.97;3.97;;;;;;;;;;4997511;28;20052;-57
2021/12/14 08:29:31;;;;;;;9.20;4.38;;;;;;;;;;4999195;28;20092;-60
2021/12/14 08:32:06;;;;;;;9.60;4.78;;;;;;;;;;4999134;28;20049;-60
2021/12/14 08:34:41;;;;;;;9.90;4.95;;;;;;;;;;4998096;28;20138;-59
2021/12/14 08:37:15;;;;;;;10.60;5.20;;;;;;;;;;4998031;28;20060;-60
2021/12/14 08:39:48;;;;;;;10.52;4.53;;;;;;;;;;4999219;28;20056;-60
2021/12/14 08:42:20;;;;;;;8.68;4.18;;;;;;;;;;5022856;23;20188;-79
2021/12/14 08:44:53;;;;;;;8.45;4.57;;;;;;;;;;5020022;28;20148;-79
2021/12/14 08:47:33;;;;;;;9.82;4.28;;;;;;;;;;5018798;28;20104;-81
2021/12/14 08:50:05;;;;;;;8.98;5.15;;;;;;;;;;5017064;28;20099;-78
2021/12/14 08:52:32;;;;;;;9.73;4.90;;;;;;;;;;5016625;28;20054;-78
2021/12/14 08:55:03;;;;;;;11.95;5.43;;;;;;;;;;5017404;28;20346;-79
2021/12/14 08:57:32;;;;;;;14.13;6.68;;;;;;;;;;5019426;28;20052;-82
2021/12/14 09:00:07;;;;;;;18.52;6.90;;;;;;;;;;5020682;28;20062;-79
2021/12/14 09:02:34;;;;;;;12.38;6.63;;;;;;;;;;5027650;28;20049;-82
2021/12/14 09:05:06;;;;;;;11.07;6.40;;;;;;;;;;5027255;28;20578;-83
2021/12/14 09:07:34;;;;;;;11.88;6.05;;;;;;;;;;5024600;28;20053;-83
2021/12/14 09:10:08;;;;;;;11.90;6.13;;;;;;;;;;5024938;28;20049;-79
2021/12/14 09:12:39;;;;;;;11.60;6.38;;;;;;;;;;5019388;28;20079;-80
2021/12/14 09:15:10;;;;;;;12.07;7.13;;;;;;;;;;5020756;28;20041;-79
2021/12/14 09:17:37;;;;;;;10.60;5.50;;;;;;;;;;5019763;28;20037;-80
2021/12/14 09:20:10;;;;;;;13.20;6.32;;;;;;;;;;5019720;28;20046;-79
2021/12/14 09:22:41;;;;;;;11.70;6.35;;;;;;;;;;5019848;28;20529;-79
2021/12/14 09:25:13;;;;;;;12.73;7.15;;;;;;;;;;5020202;28;20045;-79
2021/12/14 09:27:40;;;;;;;15.75;8.43;;;;;;;;;;5018467;28;20100;-79
2021/12/14 09:30:11;;;;;;;14.98;7.20;;;;;;;;;;5019988;28;20575;-79
2021/12/14 09:32:38;;;;;;;12.30;6.95;;;;;;;;;;5021738;28;20060;-79
2021/12/14 09:35:08;;;;;;;12.90;6.50;;;;;;;;;;5023682;28;20060;-81
2021/12/14 09:37:35;;;;;;;10.10;5.45;;;;;;;;;;5022345;28;20457;-80
2021/12/14 09:40:10;;;;;;;8.75;4.43;;;;;;;;;;5021372;28;20053;-80
2021/12/14 09:42:40;;;;;;;9.80;5.53;;;;;;;;;;5019932;28;20045;-80
2021/12/14 09:45:12;;;;;;;9.68;5.78;;;;;;;;;;5019146;28;20128;-80
2021/12/14 09:47:39;;;;;;;11.70;6.18;;;;;;;;;;5019852;28;20041;-81
2021/12/14 09:50:13;;;;;;;8.77;5.13;;;;;;;;;;5018828;28;20053;-80
2021/12/14 09:52:48;;;;;;;8.90;4.95;;;;;;;;;;5020477;28;20045;-80
2021/12/14 09:55:19;;;;;;;9.60;5.18;;;;;;;;;;5020922;28;20049;-80
2021/12/14 09:57:50;;;;;;;8.93;4.90;;;;;;;;;;5019054;28;20084;-80
2021/12/14 10:00:21;;;;;;;8.10;4.72;;;;;;;;;;5019101;28;20046;-79
2021/12/14 10:02:50;;;;;;;10.93;5.18;;;;;;;;;;5019205;28;20053;-79
2021/12/14 10:05:21;;;;;;;10.52;5.25;;;;;;;;;;5017920;28;20045;-79
2021/12/14 10:07:49;;;;;;;11.45;6.10;;;;;;;;;;5021858;28;20133;-80
2021/12/14 10:10:18;;;;;;;16.17;8.50;;;;;;;;;;5020998;28;20116;-80
2021/12/14 10:12:52;;;;;;;12.68;5.93;;;;;;;;;;5019594;28;20050;-80
2021/12/14 10:15:32;;;;;;;11.90;6.25;;;;;;;;;;5023871;28;20038;-80
2021/12/14 10:18:01;;;;;;;11.18;5.47;;;;;;;;;;5020958;28;20053;-80
2021/12/14 10:20:35;;;;;;;9.98;5.65;;;;;;;;;;5021290;28;20037;-80
2021/12/14 10:23:04;;;;;;;11.27;5.93;;;;;;;;;;5022657;28;20052;-80
2021/12/14 10:25:32;;;;;;;14.10;6.78;;;;;;;;;;5021944;28;20049;-82
2021/12/14 10:28:01;;;;;;;21.92;9.48;;;;;;;;;;5021733;28;20069;-78
2021/12/14 10:30:31;;;;;;;40.05;16.95;;;;;;;;;;5021136;28;20114;-79
2021/12/14 10:33:00;;;;;;;;;;;;;;;;;;5022279;28;20049;-80
2021/12/14 10:35:34;;;;;;;12.25;6.18;;;;;;;;;;5021889;28;19932;-80
2021/12/14 10:38:13;;;;;;;13.00;6.15;;;;;;;;;;5022584;28;20393;-81
2021/12/14 10:43:30;;;;;;;10.95;6.50;;;;;;;;;;5036151;28;20873;-81
2021/12/14 10:45:59;;;;;;;11.50;5.95;;;;;;;;;;5022575;28;20050;-81
2021/12/14 10:48:31;;;;;;;9.35;5.85;;;;;;;;;;5021748;28;20124;-81
2021/12/14 10:51:04;;;;;;;15.98;6.50;;;;;;;;;;5020447;28;20050;-82
2021/12/14 10:53:31;;;;;;;8.90;5.45;;;;;;;;;;5020379;28;20050;-80
2021/12/14 10:56:02;;;;;;;10.18;5.63;;;;;;;;;;5020400;28;20146;-81
2021/12/14 10:58:30;;;;;;;;;;;;;;;;;;5020565;28;20448;-81
2021/12/14 11:01:01;;;;;;;11.80;6.82;;;;;;;;;;5021233;28;19928;-80
2021/12/14 11:03:33;;;;;;;8.90;4.80;;;;;;;;;;5019622;28;20087;-81
2021/12/14 11:06:05;;;;;;;9.43;5.18;;;;;;;;;;5019796;28;20073;-81
2021/12/14 11:08:47;;;;;;;10.88;5.53;;;;;;;;;;5018781;28;20054;-80
2021/12/14 11:11:18;;;;;;;9.85;5.63;;;;;;;;;;5018952;28;20037;-80
2021/12/14 11:13:52;;;;;;;9.98;5.00;;;;;;;;;;5017975;28;20045;-81
2021/12/14 11:16:33;;;;;;;9.90;5.88;;;;;;;;;;5017040;28;20045;-81
2021/12/14 11:19:03;;;;;;;9.75;5.20;;;;;;;;;;5018235;28;20053;-81
2021/12/14 11:21:31;;;;;;;9.27;5.90;;;;;;;;;;5017549;28;20049;-82
2021/12/14 11:23:58;;;;;;;8.57;5.18;;;;;;;;;;5020185;28;20116;-80
2021/12/14 11:26:29;;;;;;;9.88;5.72;;;;;;;;;;5019057;28;20450;-81
2021/12/14 11:29:02;;;;;;;8.27;5.68;;;;;;;;;;5016926;28;20068;-82
2021/12/14 11:31:34;;;;;;;8.68;5.70;;;;;;;;;;5017688;28;20054;-80
2021/12/14 11:34:03;;;;;;;9.18;5.00;;;;;;;;;;5018819;28;20044;-82
2021/12/14 11:36:33;;;;;;;11.63;5.97;;;;;;;;;;5020087;28;20597;-81
2021/12/14 11:39:07;;;;;;;9.52;5.72;;;;;;;;;;5022059;28;20057;-77
2021/12/14 11:41:43;;;;;;;9.38;5.28;;;;;;;;;;5021915;28;20050;-84
2021/12/14 11:44:21;;;;;;;10.52;5.85;;;;;;;;;;5024232;28;20085;-78
2021/12/14 11:46:59;;;;;;;8.35;5.55;;;;;;;;;;5030871;28;20049;-83
2021/12/14 11:49:44;;;;;;;10.60;5.72;;;;;;;;;;5032886;28;20042;-80
2021/12/14 11:52:37;;;;;;;12.63;6.57;;;;;;;;;;5025530;28;20629;-79
2021/12/14 11:55:19;;;;;;;12.10;6.93;;;;;;;;;;5022268;28;20053;-78
2021/12/14 11:57:47;;;;;;;10.45;6.03;;;;;;;;;;5022056;28;20041;-81
2021/12/14 12:00:22;;;;;;;10.32;6.63;;;;;;;;;;5031286;28;20038;-79
2021/12/14 12:02:49;;;;;;;10.45;6.53;;;;;;;;;;5031238;28;20053;-78
2021/12/14 12:05:18;;;;;;;12.77;6.72;;;;;;;;;;5032747;28;20061;-81
2021/12/14 12:10:40;;;;;;;11.48;7.07;;;;;;;;;;5033209;28;20123;-80
2021/12/14 12:13:07;;;;;;;12.80;7.28;;;;;;;;;;5023807;28;20468;-82
2021/12/14 12:15:41;;;;;;;12.23;7.38;;;;;;;;;;5024004;28;20053;-83
2021/12/14 12:18:09;;;;;;;15.77;9.50;;;;;;;;;;5022780;28;20670;-83
2021/12/14 12:20:38;;;;;;;13.65;8.27;;;;;;;;;;5023307;28;20056;-82
2021/12/14 12:23:07;;;;;;;13.65;8.93;;;;;;;;;;5024076;28;20081;-83
2021/12/14 12:25:36;;;;;;;16.70;9.52;;;;;;;;;;5027163;28;20058;-83
2021/12/14 12:28:06;;;;;;;13.88;8.50;;;;;;;;;;5029216;28;20046;-83
2021/12/14 12:30:44;;;;;;;17.10;10.40;;;;;;;;;;5029239;28;20088;-83
2021/12/14 12:33:22;;;;;;;15.23;9.60;;;;;;;;;;5023435;28;20042;-80
2021/12/14 12:35:53;;;;;;;15.82;9.55;;;;;;;;;;5023408;28;20113;-82
2021/12/14 12:38:39;;;;;;;14.70;9.75;;;;;;;;;;5022218;28;20057;-82
2021/12/14 12:41:12;;;;;;;16.92;10.30;;;;;;;;;;5021679;28;20070;-82
2021/12/14 12:43:45;;;;;;;17.73;10.43;;;;;;;;;;5021236;28;20046;-83
2021/12/14 12:46:18;;;;;;;16.48;10.38;;;;;;;;;;5021220;28;20060;-83
2021/12/14 12:49:00;;;;;;;16.38;9.95;;;;;;;;;;5021162;28;20756;-82
2021/12/14 12:51:51;;;;;;;16.88;10.70;;;;;;;;;;5021661;28;20046;-83
2021/12/14 12:54:24;;;;;;;14.80;9.25;;;;;;;;;;5020345;28;20483;-81
2021/12/14 12:57:12;;;;;;;17.45;10.18;;;;;;;;;;5021313;28;20038;-82
2021/12/14 12:59:42;;;;;;;17.40;11.18;;;;;;;;;;5020487;28;20060;-83
2021/12/14 13:02:18;;;;;;;17.83;9.98;;;;;;;;;;5021335;28;20044;-81
2021/12/14 13:04:48;;;;;;;17.17;10.65;;;;;;;;;;5020830;28;20050;-80
2021/12/14 13:07:19;;;;;;;16.17;10.48;;;;;;;;;;5021376;28;20072;-80
2021/12/14 13:10:04;;;;;;;;;;;;;;;;;;5022395;28;20046;-81
2021/12/14 13:12:40;;;;;;;15.25;8.60;;;;;;;;;;5020846;28;19921;-81
2021/12/14 13:15:39;;;;;;;18.60;9.38;;;;;;;;;;5023196;28;20053;-81
2021/12/14 13:18:33;;;;;;;16.55;9.20;;;;;;;;;;5021965;28;20057;-82
2021/12/14 13:21:08;;;;;;;14.38;8.73;;;;;;;;;;5022825;28;20045;-82
2021/12/14 13:23:49;;;;;;;16.17;9.75;;;;;;;;;;5019376;28;20064;-80
2021/12/14 13:26:27;;;;;;;16.02;9.57;;;;;;;;;;5025414;28;20099;-80
2021/12/14 13:28:59;;;;;;;17.73;9.70;;;;;;;;;;5030046;28;20058;-87
2021/12/14 13:31:30;;;;;;;15.32;8.68;;;;;;;;;;5038149;28;20030;-82
2021/12/14 13:34:00;;;;;;;13.60;8.75;;;;;;;;;;5031808;28;20034;-82
2021/12/14 13:36:30;;;;;;;13.00;8.13;;;;;;;;;;5021446;28;20468;-83
2021/12/14 13:38:57;;;;;;;16.25;9.88;;;;;;;;;;5023171;28;20548;-82
2021/12/14 13:42:16;;;;;;;27.20;14.80;;;;;;;;;;5021329;28;20497;-83
2021/12/14 13:44:48;;;;;;;15.60;9.50;;;;;;;;;;4963222;28;20669;-82
2021/12/14 13:47:15;;;;;;;17.00;9.43;;;;;;;;;;4959438;28;20090;-81
2021/12/14 13:49:44;;;;;;;14.68;8.57;;;;;;;;;;4999259;28;20072;-84
2021/12/14 13:52:14;;;;;;;14.38;9.32;;;;;;;;;;5023089;28;20049;-81
2021/12/14 13:55:23;;;;;;;14.40;8.55;;;;;;;;;;5023288;28;20053;-81
2021/12/14 13:57:54;;;;;;;18.88;9.88;;;;;;;;;;4989597;28;20053;-81
2021/12/14 14:00:26;;;;;;;19.48;11.65;;;;;;;;;;5021791;28;20058;-80
2021/12/14 14:02:53;;;;;;;16.55;10.38;;;;;;;;;;5019676;28;20140;-83
2021/12/14 14:05:23;;;;;;;14.60;8.82;;;;;;;;;;5019899;28;20506;-82
2021/12/14 14:07:57;;;;;;;14.38;8.52;;;;;;;;;;5019504;28;20049;-80
2021/12/14 14:10:26;;;;;;;17.05;9.45;;;;;;;;;;5019822;28;20046;-82
2021/12/14 14:12:58;;;;;;;16.17;7.95;;;;;;;;;;5019092;28;20050;-83
2021/12/14 14:15:28;;;;;;;14.60;8.23;;;;;;;;;;5019017;28;20046;-82
2021/12/14 14:17:58;;;;;;;14.00;7.43;;;;;;;;;;5019163;28;20053;-82
2021/12/14 14:20:33;;;;;;;13.80;7.72;;;;;;;;;;5019967;28;20046;-79
2021/12/14 14:23:17;;;;;;;15.10;7.20;;;;;;;;;;5018503;28;20053;-86
2021/12/14 14:25:51;;;;;;;12.75;7.13;;;;;;;;;;5020025;28;20155;-82
2021/12/14 14:28:40;;;;;;;12.02;7.57;;;;;;;;;;5018867;28;20536;-82
2021/12/14 14:31:09;;;;;;;12.52;7.28;;;;;;;;;;5018845;28;20133;-81
2021/12/14 14:33:49;;;;;;;12.32;7.32;;;;;;;;;;5021102;28;20053;-82
2021/12/14 14:36:34;;;;;;;13.63;8.00;;;;;;;;;;5019240;28;20112;-82
2021/12/14 14:39:10;;;;;;;11.70;7.45;;;;;;;;;;5018149;28;20476;-82
2021/12/14 14:41:43;;;;;;;15.23;8.00;;;;;;;;;;5018074;28;20053;-82
2021/12/14 14:44:15;;;;;;;11.52;6.95;;;;;;;;;;5030661;22;20082;-62
2021/12/14 14:46:55;;;;;;;15.05;8.05;;;;;;;;;;4991434;28;20046;-61
2021/12/14 14:49:45;;;;;;;12.20;7.43;;;;;;;;;;5002473;28;20178;-61
2021/12/14 14:52:21;;;;;;;14.48;8.13;;;;;;;;;;5010278;28;20065;-62
2021/12/14 14:54:50;;;;;;;11.57;7.50;;;;;;;;;;5010756;28;20061;-62
2021/12/14 14:57:52;;;;;;;14.45;7.43;;;;;;;;;;5005849;28;20053;-61
2021/12/14 15:00:29;;;;;;;;;;;;;;;;;;5000181;28;20138;-61
2021/12/14 15:02:59;;;;;;;15.52;9.00;;;;;;;;;;5010924;28;20020;-61
2021/12/14 15:05:34;;;;;;;15.07;7.93;;;;;;;;;;5000870;28;20065;-62
2021/12/14 15:08:09;;;;;;;14.27;7.97;;;;;;;;;;4991450;28;20086;-60
2021/12/14 15:10:40;;;;;;;13.27;7.68;;;;;;;;;;5010224;28;20049;-62
2021/12/14 15:13:27;;;;;;;12.88;7.05;;;;;;;;;;5006536;28;20050;-61
2021/12/14 15:15:57;;;;;;;12.18;7.10;;;;;;;;;;5007371;28;20053;-62
2021/12/14 15:18:44;;;;;;;13.63;7.13;;;;;;;;;;5010292;28;20072;-62
2021/12/14 15:21:56;;;;;;;12.15;6.80;;;;;;;;;;5010740;28;20085;-63
2021/12/14 15:24:54;;;;;;;12.48;6.80;;;;;;;;;;4995177;28;20100;-62
2021/12/14 15:27:46;;;;;;;12.35;6.90;;;;;;;;;;4986810;28;20057;-62
2021/12/14 15:30:36;;;;;;;13.82;7.13;;;;;;;;;;4993080;28;20077;-62